createdAt,value
2019-02-14T00:01:45.988Z,20.73
2019-02-14T00:05:58.887Z,22.10
2019-02-14T00:10:11.454Z,21.87
2019-02-14T00:14:23.945Z,21.43
2019-02-14T00:18:36.647Z,21.57
2019-02-14T00:22:49.000Z,21.50
2019-02-14T00:27:01.418Z,20.53
2019-02-14T00:31:14.315Z,18.37
2019-02-14T00:35:26.833Z,20.87
2019-02-14T00:39:39.653Z,20.67
2019-02-14T00:43:52.212Z,19.57
2019-02-14T00:48:04.685Z,20.27
2019-02-14T00:52:17.408Z,17.90
2019-02-14T00:56:29.872Z,19.70
2019-02-14T01:00:43.404Z,19.77
2019-02-14T01:04:55.926Z,21.67
2019-02-14T01:09:09.568Z,20.97
2019-02-14T01:13:22.653Z,22.60
2019-02-14T01:17:35.007Z,19.83
2019-02-14T01:21:48.356Z,18.60
2019-02-14T01:26:00.664Z,16.53
2019-02-14T01:30:13.549Z,18.57
2019-02-14T01:34:26.213Z,18.33
2019-02-14T01:38:38.689Z,19.03
2019-02-14T01:42:51.411Z,18.83
2019-02-14T01:47:03.870Z,16.43
2019-02-14T01:51:16.820Z,18.37
2019-02-14T01:55:29.428Z,16.27
2019-02-14T01:59:41.935Z,22.70
2019-02-14T02:03:54.723Z,21.57
2019-02-14T02:08:08.926Z,16.50
2019-02-14T02:12:21.017Z,17.27
2019-02-14T02:16:33.437Z,18.73
2019-02-14T02:20:46.309Z,17.87
2019-02-14T02:24:58.681Z,20.37
2019-02-14T02:29:10.996Z,20.40
2019-02-14T02:33:23.428Z,19.87
2019-02-14T02:37:36.258Z,20.53
2019-02-14T02:41:48.753Z,19.83
2019-02-14T02:46:01.169Z,19.17
2019-02-14T02:50:14.510Z,23.20
2019-02-14T02:54:26.985Z,21.57
2019-02-14T02:58:39.754Z,22.77
2019-02-14T03:02:52.274Z,22.57
2019-02-14T03:07:04.676Z,21.00
2019-02-14T03:11:17.470Z,22.47
2019-02-14T03:15:30.028Z,20.97
2019-02-14T03:19:43.012Z,19.53
2019-02-14T03:23:55.659Z,20.03
2019-02-14T03:28:07.988Z,20.20
2019-02-14T03:32:20.768Z,19.67
2019-02-14T03:36:33.356Z,21.70
2019-02-14T03:40:46.385Z,23.37
2019-02-14T03:44:58.877Z,20.10
2019-02-14T03:49:11.192Z,22.13
2019-02-14T03:53:23.505Z,19.23
2019-02-14T03:57:36.356Z,23.10
2019-02-14T04:01:48.865Z,20.57
2019-02-14T04:06:01.157Z,21.47
2019-02-14T04:10:14.512Z,21.30
2019-02-14T04:14:26.912Z,19.87
2019-02-14T04:18:39.801Z,22.17
2019-02-14T04:22:52.267Z,19.67
2019-02-14T04:27:04.769Z,20.10
2019-02-14T04:31:17.563Z,19.33
2019-02-14T04:35:30.224Z,21.03
2019-02-14T04:39:43.282Z,18.80
2019-02-14T04:43:55.873Z,21.07
2019-02-14T04:48:08.180Z,17.37
2019-02-14T04:52:21.074Z,19.30
2019-02-14T04:56:33.536Z,18.90
2019-02-14T05:00:46.003Z,19.33
2019-02-14T05:04:58.728Z,18.53
2019-02-14T05:09:12.420Z,20.73
2019-02-14T05:13:25.036Z,19.67
2019-02-14T05:17:37.453Z,19.10
2019-02-14T05:21:50.232Z,19.40
2019-02-14T05:26:02.800Z,20.20
2019-02-14T05:30:15.508Z,19.03
2019-02-14T05:34:28.387Z,20.43
2019-02-14T05:38:40.833Z,18.30
2019-02-14T05:42:53.650Z,19.47
2019-02-14T05:47:06.105Z,19.90
2019-02-14T05:51:19.743Z,20.23
2019-02-14T05:55:32.152Z,18.93
2019-02-14T05:59:45.048Z,22.47
2019-02-14T06:03:57.575Z,19.47
2019-02-14T06:08:09.813Z,19.37
2019-02-14T06:12:22.702Z,21.77
2019-02-14T06:16:35.161Z,21.90
2019-02-14T06:20:48.149Z,22.50
2019-02-14T06:25:00.716Z,21.13
2019-02-14T06:29:13.695Z,24.17
2019-02-14T06:33:26.432Z,24.90
2019-02-14T06:37:39.349Z,23.37
2019-02-14T06:41:51.873Z,23.83
2019-02-14T06:46:04.221Z,22.93
2019-02-14T06:50:17.003Z,19.70
2019-02-14T06:54:29.470Z,22.17
2019-02-14T06:58:41.876Z,21.37
2019-02-14T07:02:54.659Z,23.00
2019-02-14T07:07:07.181Z,23.13
2019-02-14T07:11:20.004Z,22.50
2019-02-14T07:15:32.565Z,25.33
2019-02-14T07:19:45.552Z,25.47
2019-02-14T07:23:58.112Z,20.40
2019-02-14T07:28:10.525Z,20.23
2019-02-14T07:32:23.411Z,19.13
2019-02-14T07:36:36.394Z,22.70
2019-02-14T07:40:49.211Z,26.63
2019-02-14T07:45:01.720Z,24.20
2019-02-14T07:49:14.613Z,22.33
2019-02-14T07:53:27.186Z,22.40
2019-02-14T07:57:39.586Z,24.70
2019-02-14T08:01:52.479Z,23.63
2019-02-14T08:06:04.937Z,22.43
2019-02-14T08:10:18.641Z,23.77
2019-02-14T08:14:30.881Z,26.63
2019-02-14T08:18:43.673Z,25.13
2019-02-14T08:22:56.133Z,20.90
2019-02-14T08:27:08.441Z,22.87
2019-02-14T08:31:20.747Z,21.07
2019-02-14T08:35:33.740Z,21.97
2019-02-14T08:39:46.543Z,22.80
2019-02-14T08:43:59.293Z,20.47
2019-02-14T08:48:11.751Z,21.97
2019-02-14T08:52:24.165Z,23.03
2019-02-14T08:56:36.577Z,22.43
2019-02-14T09:00:49.411Z,20.87
2019-02-14T09:05:01.932Z,20.27
2019-02-14T09:09:15.475Z,22.83
2019-02-14T09:13:27.949Z,20.57
2019-02-14T09:17:40.764Z,20.27
2019-02-14T09:21:53.226Z,21.53
2019-02-14T09:26:05.532Z,20.67
2019-02-14T09:30:18.433Z,20.47
2019-02-14T09:34:30.987Z,22.93
2019-02-14T09:38:43.504Z,20.00
2019-02-14T09:42:56.372Z,18.00
2019-02-14T09:47:08.862Z,20.30
2019-02-14T09:51:21.840Z,20.03
2019-02-14T09:55:34.401Z,17.73
2019-02-14T09:59:46.908Z,18.33
2019-02-14T10:03:59.822Z,19.63
2019-02-14T10:08:13.125Z,18.93
2019-02-14T10:12:25.802Z,18.17
2019-02-14T10:16:38.339Z,17.37
2019-02-14T10:20:51.001Z,14.90
2019-02-14T10:25:03.456Z,15.27
2019-02-14T10:29:16.446Z,14.33
2019-02-14T10:33:29.004Z,14.13
2019-02-14T10:37:41.540Z,16.87
2019-02-14T10:41:54.300Z,14.87
2019-02-14T10:46:06.838Z,15.37
2019-02-14T10:50:19.747Z,14.90
2019-02-14T10:54:32.203Z,15.50
2019-02-14T10:58:44.617Z,15.60
2019-02-14T11:02:57.516Z,14.90
2019-02-14T11:07:09.970Z,14.13
2019-02-14T11:11:22.853Z,12.63
2019-02-14T11:15:35.608Z,13.73
2019-02-14T11:19:48.509Z,14.20
2019-02-14T11:24:01.065Z,15.50
2019-02-14T11:28:13.483Z,14.97
2019-02-14T11:32:26.361Z,14.90
2019-02-14T11:36:38.824Z,16.30
2019-02-14T11:40:51.233Z,15.57
2019-02-14T11:45:04.116Z,18.67
2019-02-14T11:49:16.127Z,15.77
2019-02-14T11:53:29.408Z,18.57
2019-02-14T11:57:42.016Z,15.93
2019-02-14T12:01:55.562Z,18.47
2019-02-14T12:06:07.980Z,17.43
2019-02-14T12:10:20.876Z,16.87
2019-02-14T12:14:33.428Z,18.17
2019-02-14T12:18:46.021Z,17.80
2019-02-14T12:22:58.742Z,19.43
2019-02-14T12:27:11.192Z,17.00
2019-02-14T12:31:24.069Z,19.77
2019-02-14T12:35:36.637Z,17.23
2019-02-14T12:39:49.683Z,15.50
2019-02-14T12:44:02.455Z,14.70
2019-02-14T12:48:14.813Z,16.30
2019-02-14T12:52:27.648Z,16.90
2019-02-14T12:56:40.148Z,16.30
2019-02-14T13:00:53.137Z,18.43
2019-02-14T13:05:05.795Z,19.27
2019-02-14T13:09:19.958Z,15.63
2019-02-14T13:13:32.977Z,15.83
2019-02-14T13:17:45.292Z,15.40
2019-02-14T13:21:58.248Z,17.47
2019-02-14T13:26:10.743Z,16.40
2019-02-14T13:30:23.949Z,15.67
2019-02-14T13:34:36.397Z,18.03
2019-02-14T13:38:48.901Z,19.53
2019-02-14T13:43:01.651Z,17.97
2019-02-14T13:47:14.148Z,16.20
2019-02-14T13:51:27.141Z,19.43
2019-02-14T13:55:39.758Z,17.83
2019-02-14T13:59:52.784Z,14.17
2019-02-14T14:04:05.272Z,13.33
2019-02-14T14:08:17.660Z,17.03
2019-02-14T14:12:30.439Z,12.63
2019-02-14T14:16:42.801Z,12.40
2019-02-14T14:20:55.781Z,14.60
2019-02-14T14:25:08.448Z,14.10
2019-02-14T14:29:21.432Z,13.97
2019-02-14T14:33:33.989Z,14.97
2019-02-14T14:37:46.413Z,14.50
2019-02-14T14:41:59.397Z,13.47
2019-02-14T14:46:22.221Z,13.53
2019-02-14T14:50:34.716Z,14.27
2019-02-14T14:54:47.030Z,14.40
2019-02-14T14:58:59.876Z,13.90
2019-02-14T15:03:12.480Z,16.00
2019-02-14T15:07:24.885Z,14.40
2019-02-14T15:11:37.682Z,12.63
2019-02-14T15:15:50.136Z,12.30
2019-02-14T15:20:05.168Z,13.70
2019-02-14T15:24:19.654Z,13.37
2019-02-14T15:28:34.912Z,15.13
2019-02-14T15:32:49.393Z,18.13
2019-02-14T15:37:04.579Z,14.83
2019-02-14T15:41:19.185Z,17.03
2019-02-14T15:45:34.132Z,14.00
2019-02-14T15:49:49.632Z,14.97
2019-02-14T15:54:04.877Z,13.00
2019-02-14T15:58:20.281Z,12.37
2019-02-14T16:02:36.337Z,16.53
2019-02-14T16:06:50.538Z,15.77
2019-02-14T16:11:03.891Z,9.67
2019-02-14T16:15:16.346Z,14.57
2019-02-14T16:19:29.307Z,15.90
2019-02-14T16:23:41.672Z,12.80
2019-02-14T16:27:54.054Z,16.43
2019-02-14T16:32:07.604Z,16.03
2019-02-14T16:36:20.694Z,17.10
2019-02-14T16:40:38.636Z,14.47
2019-02-14T16:44:48.428Z,11.83
2019-02-14T16:49:00.747Z,14.60
2019-02-14T16:53:13.191Z,13.70
2019-02-14T16:57:25.947Z,16.17
2019-02-14T17:01:39.633Z,13.43
2019-02-14T17:05:52.104Z,15.57
2019-02-14T17:10:05.140Z,13.80
2019-02-14T17:14:17.592Z,11.33
2019-02-14T17:18:30.008Z,16.20
2019-02-14T17:22:42.903Z,15.57
2019-02-14T17:26:55.358Z,18.00
2019-02-14T17:31:08.344Z,12.93
2019-02-14T17:35:20.984Z,12.47
2019-02-14T17:39:34.445Z,13.97
2019-02-14T17:43:46.860Z,12.77
2019-02-14T17:47:59.743Z,18.97
2019-02-14T17:52:13.045Z,13.37
2019-02-14T17:56:26.375Z,15.80
2019-02-14T18:00:40.712Z,20.03
2019-02-14T18:04:53.037Z,13.33
2019-02-14T18:09:07.037Z,18.33
2019-02-14T18:13:19.872Z,14.37
2019-02-14T18:17:32.341Z,14.27
2019-02-14T18:21:45.320Z,16.07
2019-02-14T18:25:57.732Z,17.17
2019-02-14T18:30:10.754Z,15.47
2019-02-14T18:34:23.328Z,19.47
2019-02-14T18:38:35.821Z,15.97
2019-02-14T18:42:48.742Z,17.10
2019-02-14T18:47:01.175Z,16.13
2019-02-14T18:51:14.069Z,15.43
2019-02-14T18:55:26.630Z,20.33
2019-02-14T18:59:39.613Z,14.77
2019-02-14T19:03:52.180Z,21.53
2019-02-14T19:08:04.480Z,15.37
2019-02-14T19:12:17.604Z,17.37
2019-02-14T19:16:30.039Z,17.57
2019-02-14T19:20:43.498Z,17.37
2019-02-14T19:24:56.252Z,15.67
2019-02-14T19:29:08.885Z,18.63
2019-02-14T19:33:21.247Z,14.47
2019-02-14T19:37:33.649Z,20.77
2019-02-14T19:41:46.132Z,13.90
2019-02-14T19:45:59.011Z,12.70
2019-02-14T19:50:11.832Z,18.50
2019-02-14T19:54:24.507Z,16.10
2019-02-14T19:58:36.960Z,19.37
2019-02-14T20:02:50.401Z,19.37
2019-02-14T20:07:02.813Z,18.70
2019-02-14T20:11:15.799Z,15.07
2019-02-14T20:15:36.719Z,17.80
2019-02-14T20:19:43.339Z,14.83
2019-02-14T20:23:56.331Z,14.83
2019-02-14T20:28:08.900Z,14.33
2019-02-14T20:32:21.289Z,15.97
2019-02-14T20:36:34.082Z,13.20
2019-02-14T20:40:46.801Z,14.93
2019-02-14T20:44:59.225Z,14.87
2019-02-14T20:49:11.983Z,13.63
2019-02-14T20:53:24.412Z,14.53
2019-02-14T20:57:37.237Z,16.70
2019-02-14T21:01:49.953Z,12.47
2019-02-14T21:06:02.365Z,14.07
2019-02-14T21:10:15.256Z,15.33
2019-02-14T21:14:27.772Z,16.90
2019-02-14T21:18:40.130Z,17.07
2019-02-14T21:22:52.914Z,17.73
2019-02-14T21:27:05.377Z,15.03
2019-02-14T21:31:18.362Z,18.20
2019-02-14T21:35:30.928Z,19.33
2019-02-14T21:39:43.900Z,15.73
2019-02-14T21:43:56.735Z,15.60
2019-02-14T21:48:09.918Z,18.90
2019-02-14T21:52:22.319Z,19.00
2019-02-14T21:56:34.832Z,17.13
2019-02-14T22:00:48.209Z,19.77
2019-02-14T22:05:01.073Z,17.20
2019-02-14T22:09:13.833Z,19.87
2019-02-14T22:13:27.097Z,21.93
2019-02-14T22:17:39.724Z,17.50
2019-02-14T22:21:52.524Z,20.10
2019-02-14T22:26:05.025Z,18.10
2019-02-14T22:30:18.209Z,18.10
2019-02-14T22:34:30.669Z,19.53
2019-02-14T22:38:43.857Z,19.67
2019-02-14T22:42:56.223Z,22.57
2019-02-14T22:47:09.626Z,24.00
2019-02-14T22:51:21.972Z,21.50
2019-02-14T22:55:34.384Z,23.53
2019-02-14T22:59:47.188Z,22.77
2019-02-14T23:03:59.824Z,22.10
2019-02-14T23:08:12.175Z,24.17
2019-02-14T23:12:25.027Z,21.90
2019-02-14T23:16:37.492Z,20.47
2019-02-14T23:20:50.069Z,22.80
2019-02-14T23:25:03.440Z,20.57
2019-02-14T23:29:16.337Z,23.67
2019-02-14T23:33:28.792Z,22.20
2019-02-14T23:37:41.217Z,21.67
2019-02-14T23:41:54.141Z,20.80
2019-02-14T23:46:06.792Z,21.10
2019-02-14T23:50:20.392Z,21.63
2019-02-14T23:54:32.717Z,20.50
2019-02-14T23:58:45.601Z,21.27
